Pagrindinis puslapis
METAR-TAF:

METAR-TAF

Oro uostai :

Kiurasao, Nyderlandų Antilai

platuma: 12-12N, ilguma: 068-58W, Aukštis: 9 m

Dabartinis oras

Ataskaita buvo paskelbta 15 minutes, ne 00:46 UTC
Vėjas 3 kt iš Pietryčių
Temperatūra 28°C
Drėgmė 84%
Slėgis 1009 hPa
Matomumas 10 km arba daugiau
Mažai debesys ne aukštis 3000 ft
lietus

METAR: TNCC 200046Z AUTO 14003KT 9999 -SHRA FEW030 28/25 Q1009

Laikas: 21:01 (01:01 UTC)

Prognozė

Ataskaita buvo paskelbta 1 valandą ir 46 minutes, ne 23:15 UTC
Prognozė galioja nuo 20 metu 00 UTC su 20 metu 24 UTC
Vėjas 3 kt nuo kintamojo kryptimis
Matomumas 10 km arba daugiau
Mažai debesys ne aukštis 2500 ft
Laikinai
nuo 20 metu 02 UTC su 20 metu 12 UTC
Vėjas 5 kt nuo kintamojo kryptimis su gūsio iki 20 kt
Matomumas: 3000 m
Išsisklaidę debesys ne aukštis 1200 ft, Liūtiniai kamuoliniai debesys.
Su prošvaistėmis ne aukštis 1400 ft
perkūnija, lietus

TAF: TNCC 192315Z 2000/2024 VRB03KT 9999 FEW025 TEMPO 2002/2012 VRB05G20KT 3000 TSRA SCT012CB BKN014

Orai ataskaitas ir orų prognozės (METAR, TAF).

turimą stotys yra geltonos ir raudonos taškus žemėlapyje.

Perkelti pele per norėdami pamatyti stoties vardą.

Tada spustelėkite, norėdami matyti oro stebėjimo ir prognozės.

Norėdami pakeisti žemėlapį: spustelėkite ant žalios mygtukų su juodo kryžiaus žemyn,; žalią mygtuką su brūkšneliu, jei norite nutolinti; arba žalių rodyklių gretimoms žemėlapius.


METAR-TAF: